createdAt,value
2022-10-18T00:00:44.257Z,97960.59
2022-10-18T00:03:10.869Z,97944.69
2022-10-18T00:05:40.397Z,97940.09
2022-10-18T00:08:06.969Z,97936.59
2022-10-18T00:10:33.694Z,97932.81
2022-10-18T00:13:00.375Z,97935.50
2022-10-18T00:15:26.967Z,97943.34
2022-10-18T00:17:53.616Z,97934.97
2022-10-18T00:20:20.218Z,97914.47
2022-10-18T00:22:46.901Z,97932.56
2022-10-18T00:25:13.662Z,97921.50
2022-10-18T00:27:40.335Z,97941.44
2022-10-18T00:30:07.384Z,97934.16
2022-10-18T00:32:38.503Z,97931.47
2022-10-18T00:35:05.745Z,97957.88
2022-10-18T00:37:32.877Z,97958.97
2022-10-18T00:39:59.465Z,97971.63
2022-10-18T00:42:32.414Z,97944.94
2022-10-18T00:45:10.709Z,97969.47
2022-10-18T00:47:37.339Z,97952.22
2022-10-18T00:50:06.127Z,97943.88
2022-10-18T00:52:38.837Z,97955.19
2022-10-18T00:55:05.913Z,97972.72
2022-10-18T00:57:32.985Z,97950.88
2022-10-18T00:59:59.670Z,97938.19
2022-10-18T01:02:26.417Z,97944.66
2022-10-18T01:04:53.127Z,97928.50
2022-10-18T01:07:27.588Z,97978.38
2022-10-18T01:10:08.688Z,97945.19
2022-10-18T01:12:44.495Z,97933.59
2022-10-18T01:15:13.505Z,97956.25
2022-10-18T01:17:58.932Z,97937.66
2022-10-18T01:20:52.208Z,97914.75
2022-10-18T01:23:50.929Z,97923.63
2022-10-18T01:26:48.067Z,97945.19
2022-10-18T01:29:26.478Z,97933.31
2022-10-18T01:32:01.313Z,97934.66
2022-10-18T01:34:29.016Z,97941.41
2022-10-18T01:36:55.767Z,97940.59
2022-10-18T01:39:34.389Z,97971.63
2022-10-18T01:42:01.862Z,97925.78
2022-10-18T01:44:29.501Z,97950.81
2022-10-18T01:46:56.391Z,97955.13
2022-10-18T01:49:23.734Z,97942.47
2022-10-18T01:51:50.352Z,97942.47
2022-10-18T01:54:23.841Z,97927.91
2022-10-18T01:57:07.864Z,97937.63
2022-10-18T01:59:43.341Z,97939.44
2022-10-18T02:02:23.681Z,97951.28
2022-10-18T02:05:08.782Z,97925.66
2022-10-18T02:08:00.105Z,97941.53
2022-10-18T02:10:50.213Z,97952.56
2022-10-18T02:13:19.024Z,97935.06
2022-10-18T02:15:47.534Z,97923.22
2022-10-18T02:18:17.661Z,97910.84
2022-10-18T02:20:44.336Z,97936.44
2022-10-18T02:23:11.251Z,97937.75
2022-10-18T02:25:40.669Z,97928.31
2022-10-18T02:28:07.356Z,97940.72
2022-10-18T02:30:41.073Z,97922.97
2022-10-18T02:33:17.932Z,97921.59
2022-10-18T02:35:48.309Z,97911.38
2022-10-18T02:38:14.970Z,97937.47
2022-10-18T02:40:41.697Z,97922.94
2022-10-18T02:43:08.308Z,97946.38
2022-10-18T02:45:35.245Z,97928.06
2022-10-18T02:48:01.786Z,97921.84
2022-10-18T02:50:28.408Z,97917.78
2022-10-18T02:52:54.994Z,97929.91
2022-10-18T02:55:21.634Z,97922.63
2022-10-18T02:57:48.303Z,97922.38
2022-10-18T03:00:15.346Z,97908.09
2022-10-18T03:02:42.010Z,97927.22
2022-10-18T03:05:08.648Z,97941.78
2022-10-18T03:07:35.477Z,97902.97
2022-10-18T03:10:02.209Z,97932.34
2022-10-18T03:12:28.842Z,97967.88
2022-10-18T03:14:55.433Z,97953.91
2022-10-18T03:17:22.098Z,97919.69
2022-10-18T03:19:48.764Z,97952.56
2022-10-18T03:22:15.410Z,97955.84
2022-10-18T03:24:42.101Z,97964.47
2022-10-18T03:27:08.790Z,97945.06
2022-10-18T03:29:35.449Z,97953.72
2022-10-18T03:32:02.044Z,97955.31
2022-10-18T03:34:28.688Z,97946.19
2022-10-18T03:36:55.331Z,97938.91
2022-10-18T03:39:21.923Z,97948.38
2022-10-18T03:41:48.518Z,97948.09
2022-10-18T03:44:15.248Z,97948.09
2022-10-18T03:46:41.874Z,97945.94
2022-10-18T03:49:08.441Z,97946.19
2022-10-18T03:51:35.014Z,97926.25
2022-10-18T03:54:01.693Z,97938.91
2022-10-18T03:56:28.414Z,97952.63
2022-10-18T03:58:55.065Z,97944.28
2022-10-18T04:01:21.777Z,97907.13
2022-10-18T04:03:48.405Z,97958.31
2022-10-18T04:06:15.103Z,97927.81
2022-10-18T04:08:41.712Z,97945.03
2022-10-18T04:11:08.371Z,97917.59
2022-10-18T04:13:35.311Z,97931.28
2022-10-18T04:16:01.841Z,97930.50
2022-10-18T04:18:28.469Z,97927.78
2022-10-18T04:20:55.154Z,97917.81
2022-10-18T04:23:21.743Z,97925.63
2022-10-18T04:25:49.083Z,97946.13
2022-10-18T04:28:15.951Z,97922.94
2022-10-18T04:30:42.606Z,97934.78
2022-10-18T04:33:09.165Z,97960.06
2022-10-18T04:35:35.754Z,97964.13
2022-10-18T04:38:02.347Z,97942.25
2022-10-18T04:40:28.991Z,97933.63
2022-10-18T04:42:55.866Z,97926.88
2022-10-18T04:45:24.075Z,97936.81
2022-10-18T04:47:50.930Z,97925.53
2022-10-18T04:50:17.522Z,97925.56
2022-10-18T04:52:44.216Z,97943.06
2022-10-18T04:55:10.899Z,97934.69
2022-10-18T04:57:37.539Z,97914.47
2022-10-18T05:00:04.932Z,97923.09
2022-10-18T05:02:31.937Z,97925.53
2022-10-18T05:04:58.742Z,97909.91
2022-10-18T05:07:25.498Z,97926.56
2022-10-18T05:09:52.111Z,97952.91
2022-10-18T05:12:18.749Z,97951.06
2022-10-18T05:14:45.409Z,97933.50
2022-10-18T05:17:12.015Z,97930.56
2022-10-18T05:19:38.694Z,97894.72
2022-10-18T05:22:05.372Z,97922.97
2022-10-18T05:24:32.129Z,97917.34
2022-10-18T05:26:58.777Z,97921.31
2022-10-18T05:29:25.579Z,97921.00
2022-10-18T05:31:52.493Z,97928.84
2022-10-18T05:34:19.038Z,97927.22
2022-10-18T05:36:45.743Z,97931.81
2022-10-18T05:39:12.384Z,97945.84
2022-10-18T05:41:38.961Z,97917.28
2022-10-18T05:44:05.816Z,97928.63
2022-10-18T05:46:32.497Z,97901.75
2022-10-18T05:48:59.434Z,97908.75
2022-10-18T05:51:26.089Z,97925.94
2022-10-18T05:53:52.654Z,97921.66
2022-10-18T05:56:19.304Z,97920.38
2022-10-18T05:58:50.194Z,97911.78
2022-10-18T06:01:16.878Z,97894.31
2022-10-18T06:03:43.535Z,97903.19
2022-10-18T06:06:11.044Z,97912.41
2022-10-18T06:08:38.083Z,97922.13
2022-10-18T06:11:07.753Z,97900.34
2022-10-18T06:13:34.735Z,97914.88
2022-10-18T06:16:01.351Z,97945.63
2022-10-18T06:18:28.021Z,97928.13
2022-10-18T06:20:58.416Z,97941.63
2022-10-18T06:23:26.383Z,97960.81
2022-10-18T06:25:53.041Z,97934.41
2022-10-18T06:28:19.675Z,97922.00
2022-10-18T06:30:46.978Z,97935.50
2022-10-18T06:33:13.539Z,97957.06
2022-10-18T06:35:40.132Z,97963.28
2022-10-18T06:38:06.729Z,97954.66
2022-10-18T06:40:33.373Z,97960.84
2022-10-18T06:43:00.685Z,97970.03
2022-10-18T06:45:37.296Z,97966.50
2022-10-18T06:48:04.035Z,97994.03
2022-10-18T06:50:30.733Z,97955.72
2022-10-18T06:52:57.876Z,97974.06
2022-10-18T06:55:24.479Z,97978.09
2022-10-18T06:57:51.820Z,97971.59
2022-10-18T07:00:18.501Z,97975.84
2022-10-18T07:02:45.085Z,97975.81
2022-10-18T07:05:11.635Z,97991.44
2022-10-18T07:07:38.345Z,98007.63
2022-10-18T07:10:05.481Z,97963.91
2022-10-18T07:12:32.355Z,98002.28
2022-10-18T07:14:59.036Z,97979.84
2022-10-18T07:17:25.652Z,97996.88
2022-10-18T07:19:52.298Z,97990.66
2022-10-18T07:22:18.858Z,97984.97
2022-10-18T07:24:45.558Z,97976.81
2022-10-18T07:27:12.133Z,97986.75
2022-10-18T07:29:38.671Z,97991.94
2022-10-18T07:32:05.390Z,97988.13
2022-10-18T07:34:31.931Z,98000.31
2022-10-18T07:36:58.535Z,98013.53
2022-10-18T07:39:25.107Z,98011.44
2022-10-18T07:41:51.621Z,97999.00
2022-10-18T07:44:18.154Z,97996.56
2022-10-18T07:46:44.703Z,97994.63
2022-10-18T07:49:11.781Z,98009.47
2022-10-18T07:51:38.432Z,97975.41
2022-10-18T07:54:05.773Z,97988.09
2022-10-18T07:56:32.282Z,97990.75
2022-10-18T07:58:58.831Z,98005.25
2022-10-18T08:01:25.682Z,97994.63
2022-10-18T08:03:52.442Z,97958.31
2022-10-18T08:06:19.278Z,97974.72
2022-10-18T08:08:45.846Z,97981.34
2022-10-18T08:11:20.063Z,97977.91
2022-10-18T08:13:46.872Z,97976.97
2022-10-18T08:16:15.527Z,97969.56
2022-10-18T08:18:42.112Z,97967.31
2022-10-18T08:21:10.059Z,97978.28
2022-10-18T08:23:37.010Z,97953.63
2022-10-18T08:26:11.431Z,97967.13
2022-10-18T08:28:38.020Z,97996.50
2022-10-18T08:31:05.800Z,97977.31
2022-10-18T08:33:32.816Z,97998.69
2022-10-18T08:36:00.543Z,97996.44
2022-10-18T08:38:30.689Z,97979.03
2022-10-18T08:40:59.972Z,97975.13
2022-10-18T08:43:40.711Z,97996.41
2022-10-18T08:46:10.885Z,97981.72
2022-10-18T08:48:40.264Z,97984.25
2022-10-18T08:51:07.342Z,97971.91
2022-10-18T08:53:40.093Z,97954.88
2022-10-18T08:56:15.868Z,97969.78
2022-10-18T08:58:45.647Z,97961.81
2022-10-18T09:01:39.603Z,97945.19
2022-10-18T09:04:34.162Z,97976.91
2022-10-18T09:07:13.743Z,97968.38
2022-10-18T09:10:00.618Z,97955.31
2022-10-18T09:12:30.389Z,97972.09
2022-10-18T09:15:17.041Z,97968.13
2022-10-18T09:18:18.733Z,97966.09
2022-10-18T09:20:49.855Z,97959.31
2022-10-18T09:23:20.619Z,97993.09
2022-10-18T09:25:48.897Z,97977.59
2022-10-18T09:28:36.340Z,97988.41
2022-10-18T09:31:23.316Z,97958.56
2022-10-18T09:33:54.331Z,97968.97
2022-10-18T09:36:28.375Z,97952.84
2022-10-18T09:39:01.500Z,97921.47
2022-10-18T09:41:31.154Z,97941.00
2022-10-18T09:44:10.528Z,97954.25
2022-10-18T09:46:38.953Z,97941.28
2022-10-18T09:49:16.387Z,97952.03
2022-10-18T09:51:43.193Z,97968.19
2022-10-18T09:54:21.806Z,97961.28
2022-10-18T09:57:13.860Z,97966.13
2022-10-18T09:59:42.618Z,97966.47
2022-10-18T10:02:16.910Z,97967.81
2022-10-18T10:04:43.666Z,97964.44
2022-10-18T10:07:34.928Z,97938.53
2022-10-18T10:10:17.580Z,97972.19
2022-10-18T10:12:44.198Z,97938.50
2022-10-18T10:15:27.019Z,97959.47
2022-10-18T10:17:57.669Z,97978.25
2022-10-18T10:20:37.694Z,97973.28
2022-10-18T10:23:16.141Z,97974.06
2022-10-18T10:25:42.725Z,97981.63
2022-10-18T10:28:16.714Z,97955.50
2022-10-18T10:30:43.255Z,97965.47
2022-10-18T10:33:32.384Z,97952.56
2022-10-18T10:35:59.719Z,97961.47
2022-10-18T10:38:27.426Z,97921.22
2022-10-18T10:40:54.107Z,97923.50
2022-10-18T10:43:39.993Z,97930.59
2022-10-18T10:46:14.455Z,97954.06
2022-10-18T10:49:00.391Z,97919.09
2022-10-18T10:51:39.110Z,97919.44
2022-10-18T10:54:16.178Z,97908.47
2022-10-18T10:56:58.463Z,97912.50
2022-10-18T10:59:26.033Z,97909.41
2022-10-18T11:02:14.029Z,97883.56
2022-10-18T11:04:41.011Z,97912.34
2022-10-18T11:07:27.600Z,97880.91
2022-10-18T11:10:22.203Z,97912.97
2022-10-18T11:13:10.155Z,97912.94
2022-10-18T11:15:39.279Z,97912.50
2022-10-18T11:18:29.470Z,97886.44
2022-10-18T11:21:09.843Z,97884.34
2022-10-18T11:23:40.402Z,97897.44
2022-10-18T11:26:13.074Z,97866.56
2022-10-18T11:28:42.469Z,97887.63
2022-10-18T11:31:27.155Z,97884.56
2022-10-18T11:34:15.675Z,97890.94
2022-10-18T11:37:22.576Z,97886.69
2022-10-18T11:40:35.153Z,97860.53
2022-10-18T11:43:30.275Z,97871.50
2022-10-18T11:46:29.756Z,97871.53
2022-10-18T11:49:03.530Z,97867.41
2022-10-18T11:51:56.037Z,97873.41
2022-10-18T11:54:51.346Z,97865.28
2022-10-18T11:57:44.118Z,97872.75
2022-10-18T12:00:23.137Z,97866.22
2022-10-18T12:02:55.718Z,97875.41
2022-10-18T12:05:24.341Z,97839.66
2022-10-18T12:08:23.375Z,97848.44
2022-10-18T12:11:04.596Z,97840.81
2022-10-18T12:13:49.130Z,97852.56
2022-10-18T12:16:16.285Z,97844.59
2022-10-18T12:19:07.197Z,97820.59
2022-10-18T12:21:34.193Z,97822.53
2022-10-18T12:24:17.384Z,97843.53
2022-10-18T12:26:44.017Z,97831.78
2022-10-18T12:29:32.470Z,97858.00
2022-10-18T12:32:01.564Z,97855.50
2022-10-18T12:34:40.724Z,97823.78
2022-10-18T12:37:44.240Z,97829.97
2022-10-18T12:40:25.506Z,97818.03
2022-10-18T12:42:52.348Z,97836.06
2022-10-18T12:45:30.135Z,97822.59
2022-10-18T12:47:59.812Z,97833.56
2022-10-18T12:50:31.431Z,97825.47
2022-10-18T12:53:20.793Z,97795.09
2022-10-18T12:55:51.185Z,97806.28
2022-10-18T12:58:26.038Z,97816.22
2022-10-18T13:00:54.332Z,97779.78
2022-10-18T13:03:20.942Z,97786.31
2022-10-18T13:05:55.915Z,97796.00
2022-10-18T13:08:40.487Z,97812.91
2022-10-18T13:11:10.323Z,97789.19
2022-10-18T13:13:58.311Z,97800.47
2022-10-18T13:16:43.781Z,97794.78
2022-10-18T13:19:28.993Z,97799.81
2022-10-18T13:22:12.495Z,97793.38
2022-10-18T13:24:42.446Z,97826.94
2022-10-18T13:27:35.644Z,97791.41
2022-10-18T13:30:18.789Z,97827.19
2022-10-18T13:33:22.850Z,97802.75
2022-10-18T13:35:52.245Z,97801.78
2022-10-18T13:38:40.903Z,97816.09
2022-10-18T13:41:10.309Z,97820.13
2022-10-18T13:43:52.656Z,97819.06
2022-10-18T13:46:23.949Z,97836.72
2022-10-18T13:48:50.747Z,97802.16
2022-10-18T13:51:17.564Z,97819.56
2022-10-18T13:53:58.828Z,97819.69
2022-10-18T13:56:48.930Z,97810.00
2022-10-18T13:59:26.177Z,97821.25
2022-10-18T14:02:11.186Z,97831.88
2022-10-18T14:04:43.669Z,97826.84
2022-10-18T14:07:10.328Z,97811.47
2022-10-18T14:09:47.842Z,97834.09
2022-10-18T14:12:40.868Z,97832.22
2022-10-18T14:15:16.299Z,97832.97
2022-10-18T14:17:52.946Z,97834.75
2022-10-18T14:20:34.594Z,97817.69
2022-10-18T14:23:20.398Z,97810.34
2022-10-18T14:25:47.136Z,97830.88
2022-10-18T14:28:15.633Z,97806.59
2022-10-18T14:31:01.175Z,97827.56
2022-10-18T14:33:37.359Z,97842.03
2022-10-18T14:36:08.091Z,97802.84
2022-10-18T14:38:39.145Z,97824.47
2022-10-18T14:41:26.940Z,97801.13
2022-10-18T14:44:09.487Z,97820.94
2022-10-18T14:46:44.618Z,97832.09
2022-10-18T14:49:11.401Z,97816.81
2022-10-18T14:51:39.112Z,97831.81
2022-10-18T14:54:06.948Z,97815.88
2022-10-18T14:56:37.911Z,97840.72
2022-10-18T14:59:05.108Z,97850.34
2022-10-18T15:02:23.518Z,97847.13
2022-10-18T15:05:04.937Z,97836.59
2022-10-18T15:07:32.121Z,97837.47
2022-10-18T15:10:00.156Z,97845.50
2022-10-18T15:12:27.114Z,97840.25
2022-10-18T15:14:56.735Z,97827.22
2022-10-18T15:17:30.777Z,97855.88
2022-10-18T15:20:05.000Z,97831.28
2022-10-18T15:22:33.449Z,97827.78
2022-10-18T15:25:11.478Z,97811.25
2022-10-18T15:27:38.907Z,97849.94
2022-10-18T15:30:20.475Z,97829.09
2022-10-18T15:32:51.525Z,97845.59
2022-10-18T15:35:38.460Z,97832.25
2022-10-18T15:38:27.784Z,97839.84
2022-10-18T15:40:54.847Z,97844.66
2022-10-18T15:43:24.539Z,97849.16
2022-10-18T15:45:52.756Z,97831.66
2022-10-18T15:48:36.170Z,97835.34
2022-10-18T15:51:06.988Z,97859.38
2022-10-18T15:53:41.713Z,97853.44
2022-10-18T15:56:30.645Z,97841.09
2022-10-18T15:59:00.604Z,97838.97
2022-10-18T16:01:36.615Z,97838.28
2022-10-18T16:04:24.917Z,97835.84
2022-10-18T16:06:51.666Z,97847.69
2022-10-18T16:09:19.934Z,97855.53
2022-10-18T16:11:47.388Z,97855.78
2022-10-18T16:14:14.301Z,97856.75
2022-10-18T16:16:41.083Z,97846.31
2022-10-18T16:19:08.243Z,97869.91
2022-10-18T16:21:36.493Z,97844.88
2022-10-18T16:24:03.658Z,97867.09
2022-10-18T16:26:32.881Z,97869.75
2022-10-18T16:28:59.647Z,97847.22
2022-10-18T16:31:28.280Z,97857.91
2022-10-18T16:33:57.686Z,97874.41
2022-10-18T16:36:31.372Z,97877.25
2022-10-18T16:38:58.515Z,97877.19
2022-10-18T16:41:38.275Z,97898.47
2022-10-18T16:44:06.454Z,97880.34
2022-10-18T16:46:36.141Z,97887.75
2022-10-18T16:49:03.145Z,97896.53
2022-10-18T16:51:29.720Z,97886.56
2022-10-18T16:53:56.363Z,97864.06
2022-10-18T16:56:28.506Z,97909.09
2022-10-18T16:58:55.074Z,97900.53
2022-10-18T17:01:22.473Z,97903.72
2022-10-18T17:03:49.153Z,97903.53
2022-10-18T17:06:18.016Z,97927.91
2022-10-18T17:08:45.011Z,97911.41
2022-10-18T17:11:11.843Z,97930.09
2022-10-18T17:13:38.596Z,97886.22
2022-10-18T17:16:05.463Z,97902.63
2022-10-18T17:18:32.218Z,97929.59
2022-10-18T17:21:01.878Z,97903.00
2022-10-18T17:23:31.414Z,97931.75
2022-10-18T17:26:08.579Z,97930.97
2022-10-18T17:28:44.983Z,97941.69
2022-10-18T17:31:12.313Z,97929.22
2022-10-18T17:33:39.270Z,97915.97
2022-10-18T17:36:06.192Z,97927.72
2022-10-18T17:38:42.576Z,97956.94
2022-10-18T17:41:17.043Z,97946.09
2022-10-18T17:43:44.367Z,97953.19
2022-10-18T17:46:15.103Z,97906.19
2022-10-18T17:48:42.141Z,97940.16
2022-10-18T17:51:13.016Z,97931.81
2022-10-18T17:53:41.157Z,97948.28
2022-10-18T17:56:08.128Z,97939.06
2022-10-18T17:58:35.149Z,97968.09
2022-10-18T18:01:12.100Z,97942.72
2022-10-18T18:03:38.933Z,97956.22
2022-10-18T18:06:36.126Z,97941.16
2022-10-18T18:09:07.471Z,97943.88
2022-10-18T18:11:35.217Z,97954.44
2022-10-18T18:14:01.963Z,97954.72
2022-10-18T18:16:29.555Z,97966.09
2022-10-18T18:18:57.188Z,97966.00
2022-10-18T18:21:29.959Z,97922.19
2022-10-18T18:23:57.126Z,97945.19
2022-10-18T18:26:24.002Z,97950.34
2022-10-18T18:28:50.761Z,97944.94
2022-10-18T18:31:22.002Z,97943.88
2022-10-18T18:33:48.667Z,97943.81
2022-10-18T18:36:15.332Z,97967.88
2022-10-18T18:38:42.082Z,97945.94
2022-10-18T18:41:18.720Z,97973.06
2022-10-18T18:43:56.210Z,97979.81
2022-10-18T18:46:23.346Z,97958.97
2022-10-18T18:48:51.882Z,97929.72
2022-10-18T18:51:19.514Z,97943.00
2022-10-18T18:53:46.390Z,97947.56
2022-10-18T18:56:18.334Z,97972.63
2022-10-18T18:58:47.390Z,97939.34
2022-10-18T19:01:25.105Z,97973.25
2022-10-18T19:03:53.455Z,97956.41
2022-10-18T19:06:24.778Z,97957.81
2022-10-18T19:08:51.483Z,97968.38
2022-10-18T19:11:19.469Z,97954.66
2022-10-18T19:13:48.281Z,97972.75
2022-10-18T19:16:28.667Z,97962.72
2022-10-18T19:19:17.045Z,97974.59
2022-10-18T19:21:52.076Z,97954.72
2022-10-18T19:24:19.501Z,97906.88
2022-10-18T19:26:46.946Z,97947.19
2022-10-18T19:29:18.094Z,97984.28
2022-10-18T19:31:44.831Z,97942.34
2022-10-18T19:34:12.313Z,97937.44
2022-10-18T19:36:39.536Z,97946.66
2022-10-18T19:39:07.227Z,97960.81
2022-10-18T19:41:33.728Z,97927.16
2022-10-18T19:44:00.361Z,97962.13
2022-10-18T19:46:26.977Z,97915.72
2022-10-18T19:48:53.575Z,97946.13
2022-10-18T19:51:23.002Z,97942.63
2022-10-18T19:53:51.884Z,97938.63
2022-10-18T19:56:20.952Z,97951.44
2022-10-18T19:58:47.728Z,97938.31
2022-10-18T20:01:14.618Z,97969.16
2022-10-18T20:03:41.163Z,97955.94
2022-10-18T20:06:07.864Z,97961.59
2022-10-18T20:08:34.913Z,97973.59
2022-10-18T20:11:02.531Z,97962.41
2022-10-18T20:13:29.152Z,97972.63
2022-10-18T20:15:55.814Z,97956.31
2022-10-18T20:18:22.343Z,97993.97
2022-10-18T20:20:48.969Z,97983.44
2022-10-18T20:23:18.536Z,97980.44
2022-10-18T20:26:04.740Z,97979.22
2022-10-18T20:28:31.363Z,97966.78
2022-10-18T20:31:11.115Z,97971.97
2022-10-18T20:33:37.722Z,97958.22
2022-10-18T20:36:11.816Z,97952.19
2022-10-18T20:38:38.992Z,97957.91
2022-10-18T20:41:06.927Z,97949.56
2022-10-18T20:43:34.850Z,97967.09
2022-10-18T20:46:01.489Z,97957.06
2022-10-18T20:48:28.124Z,97967.09
2022-10-18T20:50:54.668Z,97952.59
2022-10-18T20:53:21.214Z,97989.47
2022-10-18T20:55:48.367Z,97977.91
2022-10-18T20:58:22.194Z,97970.16
2022-10-18T21:00:55.817Z,97960.69
2022-10-18T21:03:22.489Z,97953.13
2022-10-18T21:05:52.335Z,97968.50
2022-10-18T21:08:19.833Z,97980.44
2022-10-18T21:10:52.646Z,97991.03
2022-10-18T21:13:24.943Z,97962.44
2022-10-18T21:16:00.581Z,97961.69
2022-10-18T21:18:31.551Z,97974.47
2022-10-18T21:23:38.503Z,97969.06
2022-10-18T21:26:16.436Z,97979.88
2022-10-18T21:28:47.956Z,97973.97
2022-10-18T21:31:16.494Z,97962.16
2022-10-18T21:33:43.335Z,97957.56
2022-10-18T21:36:13.342Z,97957.31
2022-10-18T21:38:39.900Z,97976.78
2022-10-18T21:41:10.132Z,97960.50
2022-10-18T21:43:40.051Z,97952.44
2022-10-18T21:46:06.903Z,97895.81
2022-10-18T21:48:33.544Z,97968.13
2022-10-18T21:51:09.731Z,97957.31
2022-10-18T21:53:36.928Z,97984.34
2022-10-18T21:56:07.625Z,97924.31
2022-10-18T21:58:35.256Z,97935.38
2022-10-18T22:01:24.781Z,97954.03
2022-10-18T22:03:52.513Z,97922.16
2022-10-18T22:06:19.256Z,97925.94
2022-10-18T22:08:53.226Z,97947.00
2022-10-18T22:11:21.898Z,97950.50
2022-10-18T22:13:48.725Z,97931.34
2022-10-18T22:16:15.641Z,97933.47
2022-10-18T22:18:42.584Z,97932.97
2022-10-18T22:21:09.974Z,97945.88
2022-10-18T22:23:44.598Z,97932.94
2022-10-18T22:26:12.962Z,97925.13
2022-10-18T22:28:40.190Z,97914.06
2022-10-18T22:31:06.817Z,97955.69
2022-10-18T22:33:33.434Z,97941.38
2022-10-18T22:36:00.210Z,97930.31
2022-10-18T22:38:27.880Z,97925.47
2022-10-18T22:40:54.424Z,97940.94
2022-10-18T22:43:21.046Z,97943.34
2022-10-18T22:45:47.588Z,97935.78
2022-10-18T22:48:21.501Z,97933.03
2022-10-18T22:50:48.075Z,97918.47
2022-10-18T22:53:17.455Z,97937.34
2022-10-18T22:55:44.341Z,97935.69
2022-10-18T22:58:15.684Z,97947.59
2022-10-18T23:00:42.481Z,97927.03
2022-10-18T23:03:10.802Z,97924.38
2022-10-18T23:05:38.632Z,97944.94
2022-10-18T23:08:09.518Z,97927.88
2022-10-18T23:10:39.947Z,97927.63
2022-10-18T23:13:06.668Z,97927.59
2022-10-18T23:15:39.013Z,97921.13
2022-10-18T23:18:05.770Z,97939.50
2022-10-18T23:20:32.281Z,97913.84
2022-10-18T23:22:58.773Z,97919.56
2022-10-18T23:25:25.301Z,97905.28
2022-10-18T23:27:51.848Z,97928.50
2022-10-18T23:30:18.549Z,97918.81
2022-10-18T23:32:45.145Z,97922.63
2022-10-18T23:35:11.725Z,97917.78
2022-10-18T23:37:41.894Z,97917.78
2022-10-18T23:40:09.319Z,97922.69
2022-10-18T23:42:36.081Z,97930.78
2022-10-18T23:45:02.908Z,97911.13
2022-10-18T23:47:29.670Z,97913.28
2022-10-18T23:49:56.346Z,97937.31
2022-10-18T23:52:24.182Z,97922.47
2022-10-18T23:54:51.051Z,97918.16
2022-10-18T23:57:17.530Z,97924.66
2022-10-18T23:59:44.013Z,97917.13
